createdAt,value
2022-08-14T00:02:01.419Z,8.02
2022-08-14T00:07:11.579Z,8.02
2022-08-14T00:10:02.541Z,8.25
2022-08-14T00:12:37.891Z,7.75
2022-08-14T00:15:15.384Z,8.25
2022-08-14T00:17:48.488Z,8.00
2022-08-14T00:20:30.189Z,8.73
2022-08-14T00:23:11.946Z,8.07
2022-08-14T00:28:15.096Z,8.32
2022-08-14T00:30:47.073Z,7.90
2022-08-14T00:33:15.221Z,7.72
2022-08-14T00:36:35.579Z,8.82
2022-08-14T00:38:31.912Z,8.13
2022-08-14T00:40:59.347Z,8.25
2022-08-14T00:43:31.675Z,8.18
2022-08-14T00:46:08.531Z,7.95
2022-08-14T00:48:55.347Z,8.48
2022-08-14T00:51:34.539Z,8.85
2022-08-14T00:54:17.095Z,8.25
2022-08-14T00:56:55.765Z,8.18
2022-08-14T00:59:29.752Z,8.27
2022-08-14T01:01:59.869Z,8.52
2022-08-14T01:04:52.257Z,7.65
2022-08-14T01:07:19.866Z,8.68
2022-08-14T01:10:05.273Z,8.23
2022-08-14T01:12:33.834Z,8.23
2022-08-14T01:15:09.309Z,8.82
2022-08-14T01:17:55.732Z,8.73
2022-08-14T01:20:41.452Z,8.68
2022-08-14T01:23:15.817Z,8.43
2022-08-14T01:25:44.199Z,8.18
2022-08-14T01:28:46.497Z,8.38
2022-08-14T01:31:01.684Z,8.75
2022-08-14T01:33:30.488Z,8.00
2022-08-14T01:36:22.843Z,8.00
2022-08-14T01:38:53.614Z,9.05
2022-08-14T01:41:30.069Z,7.88
2022-08-14T01:44:01.539Z,7.72
2022-08-14T01:46:33.282Z,7.70
2022-08-14T01:49:08.106Z,8.40
2022-08-14T01:51:36.489Z,8.02
2022-08-14T01:54:14.370Z,7.90
2022-08-14T01:56:44.835Z,7.65
2022-08-14T01:59:18.446Z,7.07
2022-08-14T02:01:58.692Z,7.82
2022-08-14T02:04:40.578Z,7.63
2022-08-14T02:07:34.452Z,7.38
2022-08-14T02:10:07.031Z,7.47
2022-08-14T02:12:34.146Z,6.78
2022-08-14T02:15:02.434Z,6.72
2022-08-14T02:17:30.901Z,7.28
2022-08-14T02:19:58.672Z,6.63
2022-08-14T02:22:32.479Z,7.00
2022-08-14T02:25:00.636Z,6.63
2022-08-14T02:28:23.956Z,7.15
2022-08-14T02:30:16.643Z,6.43
2022-08-14T02:32:44.614Z,6.53
2022-08-14T02:35:17.804Z,7.10
2022-08-14T02:37:49.587Z,6.72
2022-08-14T02:40:19.351Z,7.60
2022-08-14T02:42:55.190Z,7.28
2022-08-14T02:45:38.849Z,7.43
2022-08-14T02:49:02.972Z,6.75
2022-08-14T02:51:14.551Z,6.95
2022-08-14T02:53:44.380Z,7.47
2022-08-14T02:56:29.949Z,7.47
2022-08-14T02:59:05.685Z,7.35
2022-08-14T03:01:50.088Z,6.68
2022-08-14T03:04:20.342Z,7.18
2022-08-14T03:06:58.074Z,6.78
2022-08-14T03:10:26.729Z,7.10
2022-08-14T03:12:32.184Z,6.63
2022-08-14T03:15:09.065Z,6.68
2022-08-14T03:17:57.181Z,7.30
2022-08-14T03:20:30.267Z,7.03
2022-08-14T03:23:00.154Z,7.53
2022-08-14T03:25:31.450Z,7.63
2022-08-14T03:28:02.617Z,7.15
2022-08-14T03:30:39.912Z,7.90
2022-08-14T03:33:14.236Z,6.95
2022-08-14T03:35:59.824Z,7.63
2022-08-14T03:39:13.671Z,7.68
2022-08-14T03:41:23.339Z,7.40
2022-08-14T03:43:57.105Z,7.30
2022-08-14T03:46:38.739Z,7.53
2022-08-14T03:49:06.737Z,7.20
2022-08-14T03:51:40.371Z,7.85
2022-08-14T03:54:15.707Z,7.50
2022-08-14T03:56:50.145Z,7.80
2022-08-14T03:59:18.059Z,7.65
2022-08-14T04:01:58.244Z,7.25
2022-08-14T04:04:31.169Z,6.72
2022-08-14T04:07:00.104Z,7.65
2022-08-14T04:09:27.563Z,7.85
2022-08-14T04:11:56.291Z,7.75
2022-08-14T04:14:25.189Z,7.20
2022-08-14T04:16:52.072Z,8.23
2022-08-14T04:19:23.642Z,7.78
2022-08-14T04:22:03.740Z,7.15
2022-08-14T04:24:38.466Z,7.05
2022-08-14T04:27:11.880Z,7.57
2022-08-14T04:29:44.975Z,7.82
2022-08-14T04:33:00.365Z,7.28
2022-08-14T04:35:01.279Z,7.70
2022-08-14T04:37:53.636Z,7.95
2022-08-14T04:40:40.536Z,7.93
2022-08-14T04:43:26.868Z,7.65
2022-08-14T04:46:06.787Z,8.05
2022-08-14T04:48:43.227Z,8.07
2022-08-14T04:51:21.643Z,7.45
2022-08-14T04:53:50.606Z,8.63
2022-08-14T04:56:34.361Z,7.93
2022-08-14T04:59:10.423Z,7.43
2022-08-14T05:01:49.787Z,8.10
2022-08-14T05:04:21.168Z,8.20
2022-08-14T05:06:55.013Z,7.68
2022-08-14T05:09:24.456Z,7.72
2022-08-14T05:11:55.919Z,7.57
2022-08-14T05:14:53.647Z,8.23
2022-08-14T05:17:32.198Z,8.73
2022-08-14T05:21:10.993Z,9.02
2022-08-14T05:22:59.797Z,8.63
2022-08-14T05:25:30.737Z,8.88
2022-08-14T05:28:19.339Z,8.43
2022-08-14T05:30:56.350Z,8.65
2022-08-14T05:33:26.000Z,8.23
2022-08-14T05:35:53.598Z,8.73
2022-08-14T05:38:31.621Z,9.40
2022-08-14T05:41:14.530Z,8.82
2022-08-14T05:43:46.195Z,9.73
2022-08-14T05:46:18.668Z,9.48
2022-08-14T05:48:56.235Z,9.40
2022-08-14T05:51:25.859Z,9.20
2022-08-14T05:54:01.842Z,9.70
2022-08-14T05:56:40.193Z,10.23
2022-08-14T05:59:07.541Z,10.20
2022-08-14T06:01:34.844Z,9.88
2022-08-14T06:04:04.588Z,10.32
2022-08-14T06:06:36.598Z,11.23
2022-08-14T06:09:10.004Z,10.88
2022-08-14T06:11:37.375Z,12.05
2022-08-14T06:14:04.766Z,12.10
2022-08-14T06:16:39.611Z,12.05
2022-08-14T06:19:07.567Z,11.98
2022-08-14T06:21:40.555Z,11.80
2022-08-14T06:24:10.326Z,10.93
2022-08-14T06:26:52.046Z,11.35
2022-08-14T06:29:25.163Z,12.18
2022-08-14T06:32:00.315Z,12.68
2022-08-14T06:35:02.858Z,12.73
2022-08-14T06:37:17.133Z,12.40
2022-08-14T06:39:44.593Z,12.05
2022-08-14T06:42:18.278Z,12.50
2022-08-14T06:45:01.477Z,11.85
2022-08-14T06:47:29.876Z,12.82
2022-08-14T06:49:57.844Z,12.20
2022-08-14T06:52:25.247Z,12.55
2022-08-14T06:54:52.334Z,11.80
2022-08-14T06:57:19.542Z,12.15
2022-08-14T06:59:49.922Z,11.98
2022-08-14T07:02:36.542Z,13.00
2022-08-14T07:05:29.298Z,12.10
2022-08-14T07:07:57.878Z,12.30
2022-08-14T07:10:25.733Z,11.52
2022-08-14T07:13:01.844Z,12.25
2022-08-14T07:15:33.861Z,12.10
2022-08-14T07:18:08.942Z,12.30
2022-08-14T07:20:37.535Z,12.25
2022-08-14T07:23:09.277Z,11.48
2022-08-14T07:25:48.280Z,11.02
2022-08-14T07:28:20.839Z,10.88
2022-08-14T07:30:50.744Z,10.23
2022-08-14T07:33:24.872Z,10.70
2022-08-14T07:35:59.421Z,10.35
2022-08-14T07:38:33.990Z,10.63
2022-08-14T07:41:06.881Z,10.73
2022-08-14T07:43:41.103Z,11.05
2022-08-14T07:46:08.436Z,10.25
2022-08-14T07:48:40.773Z,10.23
2022-08-14T07:51:10.831Z,10.70
2022-08-14T07:53:40.765Z,10.38
2022-08-14T07:56:43.948Z,9.52
2022-08-14T07:58:58.768Z,10.73
2022-08-14T08:01:31.014Z,10.38
2022-08-14T08:04:01.588Z,9.80
2022-08-14T08:06:30.727Z,10.52
2022-08-14T08:09:02.911Z,10.85
2022-08-14T08:11:37.330Z,10.55
2022-08-14T08:14:10.644Z,10.57
2022-08-14T08:16:51.340Z,10.88
2022-08-14T08:19:19.323Z,11.80
2022-08-14T08:21:47.674Z,11.45
2022-08-14T08:24:18.706Z,10.75
2022-08-14T08:26:50.648Z,10.63
2022-08-14T08:29:22.528Z,12.13
2022-08-14T08:31:56.001Z,11.05
2022-08-14T08:34:24.180Z,10.98
2022-08-14T08:36:51.665Z,11.10
2022-08-14T08:39:22.438Z,11.02
2022-08-14T08:41:53.620Z,10.63
2022-08-14T08:44:32.156Z,10.90
2022-08-14T08:47:08.066Z,11.23
2022-08-14T08:49:42.824Z,11.95
2022-08-14T08:52:25.267Z,10.73
2022-08-14T08:54:59.163Z,11.35
2022-08-14T08:57:27.706Z,10.63
2022-08-14T08:59:58.815Z,10.82
2022-08-14T09:02:27.716Z,10.43
2022-08-14T09:05:02.507Z,10.32
2022-08-14T09:07:31.182Z,9.88
2022-08-14T09:09:59.933Z,11.07
2022-08-14T09:12:31.364Z,10.10
2022-08-14T09:15:04.186Z,10.70
2022-08-14T09:17:41.363Z,10.15
2022-08-14T09:20:11.316Z,9.80
2022-08-14T09:22:47.839Z,11.00
2022-08-14T09:25:19.711Z,10.75
2022-08-14T09:27:56.612Z,10.20
2022-08-14T09:30:32.621Z,10.63
2022-08-14T09:33:09.146Z,10.55
2022-08-14T09:35:48.747Z,10.70
2022-08-14T09:38:47.486Z,10.63
2022-08-14T09:44:54.420Z,10.18
2022-08-14T09:47:21.561Z,11.23
2022-08-14T09:49:52.952Z,10.63
2022-08-14T09:52:33.055Z,9.82
2022-08-14T09:55:02.803Z,10.85
2022-08-14T09:57:31.462Z,11.20
2022-08-14T10:00:28.622Z,10.77
2022-08-14T10:03:05.591Z,10.88
2022-08-14T10:05:35.074Z,10.98
2022-08-14T10:08:25.575Z,11.10
2022-08-14T10:11:02.371Z,11.13
2022-08-14T10:13:52.581Z,11.00
2022-08-14T10:16:21.768Z,10.90
2022-08-14T10:19:09.324Z,10.98
2022-08-14T10:23:11.311Z,11.38
2022-08-14T10:24:42.083Z,12.05
2022-08-14T10:27:23.655Z,11.68
2022-08-14T10:30:01.676Z,11.65
2022-08-14T10:32:40.264Z,11.88
2022-08-14T10:35:14.367Z,11.77
2022-08-14T10:37:48.148Z,11.43
2022-08-14T10:40:38.653Z,13.02
2022-08-14T10:43:25.690Z,11.70
2022-08-14T10:46:04.112Z,11.75
2022-08-14T10:48:56.848Z,11.55
2022-08-14T10:51:30.326Z,11.38
2022-08-14T10:54:35.311Z,11.43
2022-08-14T10:56:56.010Z,12.15
2022-08-14T10:59:30.724Z,12.30
2022-08-14T11:02:03.489Z,11.63
2022-08-14T11:04:31.268Z,11.63
2022-08-14T11:06:58.515Z,11.35
2022-08-14T11:09:32.195Z,11.20
2022-08-14T11:12:35.078Z,11.27
2022-08-14T11:14:56.336Z,11.18
2022-08-14T11:17:32.109Z,12.55
2022-08-14T11:20:01.694Z,12.60
2022-08-14T11:22:55.729Z,11.98
2022-08-14T11:25:21.383Z,11.48
2022-08-14T11:27:49.375Z,11.75
2022-08-14T11:30:51.026Z,12.18
2022-08-14T11:33:09.346Z,11.32
2022-08-14T11:35:44.073Z,11.90
2022-08-14T11:38:18.115Z,11.65
2022-08-14T11:40:47.563Z,11.85
2022-08-14T11:43:16.435Z,12.48
2022-08-14T11:45:47.998Z,11.57
2022-08-14T11:48:59.191Z,12.18
2022-08-14T11:51:30.401Z,11.82
2022-08-14T11:54:08.186Z,11.23
2022-08-14T11:56:41.407Z,12.55
2022-08-14T11:59:15.192Z,12.07
2022-08-14T12:01:42.741Z,12.50
2022-08-14T12:04:21.748Z,11.23
2022-08-14T12:07:01.755Z,12.55
2022-08-14T12:09:36.614Z,11.40
2022-08-14T12:12:35.511Z,12.20
2022-08-14T12:15:07.123Z,13.40
2022-08-14T12:17:47.257Z,11.43
2022-08-14T12:20:16.072Z,11.60
2022-08-14T12:25:25.624Z,11.90
2022-08-14T12:27:59.489Z,11.73
2022-08-14T12:30:39.518Z,10.88
2022-08-14T12:33:30.824Z,10.90
2022-08-14T12:36:08.294Z,11.00
2022-08-14T12:38:43.516Z,11.38
2022-08-14T12:41:20.424Z,11.30
2022-08-14T12:43:53.758Z,10.38
2022-08-14T12:46:32.223Z,11.98
2022-08-14T12:49:15.970Z,10.52
2022-08-14T12:51:55.202Z,11.40
2022-08-14T12:54:28.342Z,11.80
2022-08-14T12:57:19.281Z,10.88
2022-08-14T12:59:49.456Z,10.82
2022-08-14T13:02:27.392Z,12.02
2022-08-14T13:04:56.937Z,10.95
2022-08-14T13:07:32.012Z,12.10
2022-08-14T13:10:29.701Z,11.18
2022-08-14T13:13:12.003Z,11.63
2022-08-14T13:15:40.191Z,11.48
2022-08-14T13:18:10.563Z,12.48
2022-08-14T13:20:37.804Z,10.75
2022-08-14T13:23:05.366Z,11.07
2022-08-14T13:25:35.335Z,11.60
2022-08-14T13:28:04.956Z,11.07
2022-08-14T13:30:45.006Z,11.10
2022-08-14T13:33:14.945Z,11.40
2022-08-14T13:35:47.610Z,11.32
2022-08-14T13:38:20.804Z,10.57
2022-08-14T13:40:54.419Z,10.48
2022-08-14T13:43:24.734Z,11.43
2022-08-14T13:46:00.684Z,10.85
2022-08-14T13:48:33.104Z,10.05
2022-08-14T13:51:11.045Z,11.80
2022-08-14T13:54:07.041Z,11.20
2022-08-14T13:56:37.744Z,11.52
2022-08-14T13:59:06.620Z,10.68
2022-08-14T14:01:43.847Z,10.60
2022-08-14T14:04:18.982Z,10.20
2022-08-14T14:06:49.090Z,10.95
2022-08-14T14:09:23.151Z,10.95
2022-08-14T14:11:53.097Z,11.35
2022-08-14T14:14:44.655Z,11.30
2022-08-14T14:17:14.583Z,10.25
2022-08-14T14:19:46.923Z,11.02
2022-08-14T14:22:34.373Z,10.82
2022-08-14T14:25:07.105Z,10.70
2022-08-14T14:27:41.138Z,11.43
2022-08-14T14:30:24.554Z,10.80
2022-08-14T14:33:05.074Z,10.15
2022-08-14T14:35:38.583Z,10.50
2022-08-14T14:38:07.197Z,11.15
2022-08-14T14:40:52.217Z,11.50
2022-08-14T14:43:25.271Z,10.95
2022-08-14T14:45:55.136Z,10.65
2022-08-14T14:48:23.483Z,10.82
2022-08-14T14:51:01.509Z,11.35
2022-08-14T14:53:38.661Z,10.85
2022-08-14T14:56:46.789Z,10.70
2022-08-14T14:58:57.511Z,10.45
2022-08-14T15:01:26.450Z,10.70
2022-08-14T15:03:56.490Z,10.35
2022-08-14T15:06:28.983Z,10.20
2022-08-14T15:08:59.706Z,10.60
2022-08-14T15:11:30.089Z,10.68
2022-08-14T15:13:58.401Z,10.73
2022-08-14T15:16:28.375Z,10.02
2022-08-14T15:18:55.359Z,10.35
2022-08-14T15:21:23.242Z,10.45
2022-08-14T15:23:52.185Z,9.32
2022-08-14T15:26:24.297Z,9.38
2022-08-14T15:29:06.403Z,9.03
2022-08-14T15:31:36.139Z,8.27
2022-08-14T15:34:40.980Z,8.48
2022-08-14T15:36:58.171Z,9.82
2022-08-14T15:39:29.186Z,8.25
2022-08-14T15:41:58.077Z,8.18
2022-08-14T15:44:28.842Z,9.02
2022-08-14T15:47:01.926Z,9.40
2022-08-14T15:49:34.525Z,9.55
2022-08-14T15:52:03.821Z,8.95
2022-08-14T15:54:32.447Z,9.95
2022-08-14T15:57:08.436Z,10.02
2022-08-14T15:59:56.751Z,10.35
2022-08-14T16:02:27.501Z,9.98
2022-08-14T16:04:56.257Z,9.70
2022-08-14T16:07:27.089Z,10.43
2022-08-14T16:10:25.354Z,10.52
2022-08-14T16:12:47.386Z,10.60
2022-08-14T16:15:16.754Z,11.27
2022-08-14T16:17:45.748Z,12.05
2022-08-14T16:20:41.094Z,11.90
2022-08-14T16:23:10.342Z,11.38
2022-08-14T16:25:42.799Z,11.38
2022-08-14T16:28:27.016Z,11.57
2022-08-14T16:30:59.344Z,11.45
2022-08-14T16:33:27.878Z,11.50
2022-08-14T16:36:30.108Z,12.55
2022-08-14T16:39:00.602Z,11.80
2022-08-14T16:41:27.898Z,11.60
2022-08-14T16:44:01.831Z,12.90
2022-08-14T16:46:32.849Z,13.15
2022-08-14T16:49:00.645Z,13.13
2022-08-14T16:51:34.775Z,12.25
2022-08-14T16:54:34.013Z,11.98
2022-08-14T16:56:53.978Z,12.33
2022-08-14T16:59:30.440Z,12.70
2022-08-14T17:02:11.753Z,12.60
2022-08-14T17:04:41.258Z,12.00
2022-08-14T17:07:13.754Z,13.10
2022-08-14T17:09:44.932Z,12.70
2022-08-14T17:15:10.094Z,12.68
2022-08-14T17:17:50.060Z,13.57
2022-08-14T17:20:54.725Z,13.00
2022-08-14T17:23:14.389Z,12.10
2022-08-14T17:25:50.827Z,13.63
2022-08-14T17:28:49.892Z,13.00
2022-08-14T17:31:12.109Z,12.23
2022-08-14T17:33:40.940Z,12.57
2022-08-14T17:36:11.423Z,12.98
2022-08-14T17:39:11.933Z,14.25
2022-08-14T17:41:44.189Z,14.10
2022-08-14T17:44:33.961Z,13.00
2022-08-14T17:47:10.121Z,12.43
2022-08-14T17:49:46.653Z,12.75
2022-08-14T17:52:16.968Z,12.85
2022-08-14T17:54:52.434Z,13.50
2022-08-14T17:57:23.376Z,13.55
2022-08-14T17:59:51.575Z,14.20
2022-08-14T18:02:23.358Z,14.02
2022-08-14T18:05:02.984Z,13.07
2022-08-14T18:07:59.508Z,15.40
2022-08-14T18:10:55.494Z,13.90
2022-08-14T18:13:10.699Z,14.40
2022-08-14T18:15:41.432Z,14.77
2022-08-14T18:18:11.958Z,14.73
2022-08-14T18:21:42.570Z,14.25
2022-08-14T18:23:28.415Z,14.32
2022-08-14T18:25:57.079Z,10.68
2022-08-14T18:28:51.788Z,8.63
2022-08-14T18:31:21.642Z,8.77
2022-08-14T18:33:54.427Z,7.90
2022-08-14T18:36:54.286Z,8.10
2022-08-14T18:39:29.788Z,7.68
2022-08-14T18:42:23.386Z,8.70
2022-08-14T18:44:50.835Z,8.82
2022-08-14T18:47:17.848Z,9.93
2022-08-14T18:49:54.254Z,8.10
2022-08-14T18:52:39.921Z,8.73
2022-08-14T18:55:16.629Z,10.27
2022-08-14T18:57:58.159Z,10.20
2022-08-14T19:00:33.023Z,10.85
2022-08-14T19:03:05.681Z,11.20
2022-08-14T19:05:47.503Z,9.80
2022-08-14T19:10:59.339Z,8.85
2022-08-14T19:13:44.477Z,9.93
2022-08-14T19:16:22.798Z,9.88
2022-08-14T19:19:00.087Z,10.32
2022-08-14T19:21:43.607Z,10.30
2022-08-14T19:24:27.716Z,9.77
2022-08-14T19:27:22.899Z,9.98
2022-08-14T19:30:19.830Z,11.10
2022-08-14T19:32:53.067Z,9.88
2022-08-14T19:35:24.868Z,9.15
2022-08-14T19:38:32.102Z,9.02
2022-08-14T19:41:01.550Z,9.60
2022-08-14T19:43:55.159Z,10.35
2022-08-14T19:46:37.889Z,9.75
2022-08-14T19:49:14.190Z,10.63
2022-08-14T19:51:49.436Z,11.25
2022-08-14T19:54:16.742Z,10.68
2022-08-14T19:56:46.086Z,9.55
2022-08-14T19:59:19.425Z,10.05
2022-08-14T20:01:51.208Z,10.65
2022-08-14T20:04:47.302Z,10.13
2022-08-14T20:08:00.417Z,11.20
2022-08-14T20:11:06.962Z,10.52
2022-08-14T20:13:15.121Z,10.65
2022-08-14T20:15:51.385Z,10.82
2022-08-14T20:18:49.642Z,9.73
2022-08-14T20:21:13.664Z,9.57
2022-08-14T20:23:41.878Z,11.02
2022-08-14T20:26:30.586Z,10.32
2022-08-14T20:29:06.945Z,10.73
2022-08-14T20:31:38.756Z,11.07
2022-08-14T20:34:18.733Z,11.75
2022-08-14T20:37:04.994Z,10.60
2022-08-14T20:39:43.582Z,12.27
2022-08-14T20:42:38.187Z,10.73
2022-08-14T20:45:18.890Z,12.15
2022-08-14T20:47:56.459Z,12.00
2022-08-14T20:50:28.766Z,12.23
2022-08-14T20:53:06.068Z,12.23
2022-08-14T20:55:41.743Z,12.30
2022-08-14T20:58:38.817Z,11.95
2022-08-14T21:01:18.703Z,12.02
2022-08-14T21:03:57.154Z,13.13
2022-08-14T21:06:49.345Z,12.68
2022-08-14T21:10:05.735Z,12.25
2022-08-14T21:12:34.086Z,14.30
2022-08-14T21:14:55.939Z,13.13
2022-08-14T21:17:25.526Z,13.80
2022-08-14T21:19:54.517Z,13.38
2022-08-14T21:22:21.458Z,14.40
2022-08-14T21:24:48.601Z,14.30
2022-08-14T21:27:20.353Z,13.27
2022-08-14T21:29:55.651Z,14.88
2022-08-14T21:32:47.382Z,14.98
2022-08-14T21:35:25.922Z,12.82
2022-08-14T21:37:53.897Z,14.10
2022-08-14T21:40:40.115Z,13.85
2022-08-14T21:43:17.332Z,13.93
2022-08-14T21:45:45.897Z,13.38
2022-08-14T21:48:21.907Z,13.02
2022-08-14T21:51:01.578Z,13.65
2022-08-14T21:53:57.971Z,14.23
2022-08-14T21:56:38.547Z,13.75
2022-08-14T21:59:17.680Z,14.32
2022-08-14T22:02:00.831Z,14.73
2022-08-14T22:04:40.633Z,15.32
2022-08-14T22:07:16.781Z,16.05
2022-08-14T22:09:45.464Z,15.43
2022-08-14T22:12:45.338Z,15.00
2022-08-14T22:15:11.959Z,15.38
2022-08-14T22:17:44.229Z,14.73
2022-08-14T22:20:16.227Z,15.50
2022-08-14T22:22:43.648Z,16.48
2022-08-14T22:25:16.128Z,16.42
2022-08-14T22:27:55.303Z,14.85
2022-08-14T22:30:25.277Z,16.13
2022-08-14T22:32:57.441Z,16.20
2022-08-14T22:35:27.416Z,16.02
2022-08-14T22:38:01.761Z,16.67
2022-08-14T22:41:20.727Z,15.77
2022-08-14T22:43:35.971Z,15.65
2022-08-14T22:46:14.391Z,14.93
2022-08-14T22:48:45.379Z,16.00
2022-08-14T22:51:17.766Z,16.52
2022-08-14T22:53:48.507Z,17.10
2022-08-14T22:56:20.740Z,16.20
2022-08-14T22:58:54.167Z,16.67
2022-08-14T23:01:56.024Z,17.00
2022-08-14T23:04:35.693Z,16.42
2022-08-14T23:07:21.932Z,16.83
2022-08-14T23:09:57.701Z,15.68
2022-08-14T23:12:54.562Z,17.23
2022-08-14T23:15:30.266Z,16.40
2022-08-14T23:17:58.248Z,16.63
2022-08-14T23:20:29.276Z,16.83
2022-08-14T23:22:58.021Z,17.30
2022-08-14T23:25:57.237Z,16.33
2022-08-14T23:28:33.495Z,17.63
2022-08-14T23:31:05.777Z,17.17
2022-08-14T23:33:34.752Z,16.77
2022-08-14T23:36:32.121Z,16.73
2022-08-14T23:38:53.800Z,16.58
2022-08-14T23:41:21.304Z,17.55
2022-08-14T23:43:54.744Z,17.25
2022-08-14T23:46:34.475Z,16.70
2022-08-14T23:49:03.124Z,18.40
2022-08-14T23:51:36.320Z,17.17
2022-08-14T23:54:03.910Z,17.50
2022-08-14T23:56:32.644Z,18.30
2022-08-14T23:59:01.917Z,17.67
